createdAt,value
2023-01-01T00:04:18.717Z,68.93
2023-01-01T00:10:00.037Z,58.20
2023-01-01T00:15:25.193Z,55.57
2023-01-01T00:20:48.941Z,59.47
2023-01-01T00:26:13.729Z,52.22
2023-01-01T00:31:38.999Z,56.05
2023-01-01T00:37:02.751Z,55.22
2023-01-01T00:42:26.756Z,64.85
2023-01-01T00:47:54.372Z,68.45
2023-01-01T00:53:18.627Z,66.57
2023-01-01T00:58:42.439Z,58.42
2023-01-01T01:04:09.093Z,54.38
2023-01-01T01:09:33.028Z,50.75
2023-01-01T01:14:56.819Z,84.90
2023-01-01T01:20:22.176Z,69.05
2023-01-01T01:25:46.711Z,61.47
2023-01-01T01:31:11.284Z,55.88
2023-01-01T01:36:36.475Z,61.15
2023-01-01T01:42:02.393Z,54.67
2023-01-01T01:47:32.288Z,50.00
2023-01-01T01:53:10.308Z,63.38
2023-01-01T01:58:35.123Z,69.20
2023-01-01T02:04:00.553Z,119.32
2023-01-01T02:09:25.784Z,77.35
2023-01-01T02:14:49.630Z,93.72
2023-01-01T02:20:26.124Z,76.45
2023-01-01T02:26:09.068Z,61.97
2023-01-01T02:31:38.946Z,55.83
2023-01-01T02:37:05.481Z,54.55
2023-01-01T02:42:31.056Z,64.63
2023-01-01T02:47:56.229Z,60.08
2023-01-01T02:53:30.413Z,57.70
2023-01-01T02:59:23.878Z,52.10
2023-01-01T03:05:07.416Z,54.60
2023-01-01T03:10:40.426Z,48.80
2023-01-01T03:16:10.051Z,46.13
2023-01-01T03:21:35.724Z,56.08
2023-01-01T03:27:03.275Z,62.05
2023-01-01T03:32:46.975Z,61.65
2023-01-01T03:38:18.061Z,64.47
2023-01-01T03:43:49.396Z,63.60
2023-01-01T03:49:14.297Z,94.75
2023-01-01T03:54:46.023Z,90.45
2023-01-01T04:00:16.304Z,86.18
2023-01-01T04:05:43.716Z,74.82
2023-01-01T04:11:28.949Z,132.55
2023-01-01T04:16:52.799Z,151.50
2023-01-01T04:22:17.235Z,111.07
2023-01-01T04:27:42.849Z,101.43
2023-01-01T04:33:06.566Z,108.47
2023-01-01T04:38:30.354Z,94.90
2023-01-01T04:43:55.577Z,99.03
2023-01-01T04:49:19.367Z,143.57
2023-01-01T04:54:43.100Z,121.07
2023-01-01T05:00:09.839Z,113.07
2023-01-01T05:05:33.586Z,106.85
2023-01-01T05:11:01.482Z,118.85
2023-01-01T05:16:29.284Z,116.50
2023-01-01T05:21:54.101Z,122.97
2023-01-01T05:27:17.877Z,129.85
2023-01-01T05:32:43.023Z,150.77
2023-01-01T05:38:06.781Z,145.95
2023-01-01T05:43:30.862Z,125.32
2023-01-01T05:48:56.506Z,90.50
2023-01-01T05:54:20.379Z,97.85
2023-01-01T05:59:44.348Z,118.15
2023-01-01T06:05:10.391Z,101.45
2023-01-01T06:10:34.163Z,113.95
2023-01-01T06:15:59.083Z,111.82
2023-01-01T06:21:25.971Z,106.03
2023-01-01T06:26:49.835Z,136.65
2023-01-01T06:32:13.690Z,113.68
2023-01-01T06:37:39.061Z,126.45
2023-01-01T06:43:02.847Z,139.95
2023-01-01T06:48:26.656Z,163.85
2023-01-01T06:53:52.657Z,116.55
2023-01-01T06:59:17.471Z,117.53
2023-01-01T07:04:41.656Z,168.05
2023-01-01T07:10:07.738Z,105.72
2023-01-01T07:15:31.660Z,99.72
2023-01-01T07:20:57.294Z,111.93
2023-01-01T07:26:22.463Z,103.57
2023-01-01T07:31:46.645Z,93.68
2023-01-01T07:37:10.505Z,93.72
2023-01-01T07:42:35.711Z,109.32
2023-01-01T07:48:00.778Z,118.00
2023-01-01T07:53:24.547Z,90.03
2023-01-01T07:58:49.763Z,111.57
2023-01-01T08:04:13.640Z,94.10
2023-01-01T08:09:37.472Z,88.60
2023-01-01T08:15:02.685Z,79.60
2023-01-01T08:20:26.854Z,77.07
2023-01-01T08:25:50.708Z,74.07
2023-01-01T08:31:16.100Z,77.97
2023-01-01T08:36:41.127Z,75.43
2023-01-01T08:42:10.270Z,71.63
2023-01-01T08:47:37.500Z,77.43
2023-01-01T08:53:01.547Z,73.95
2023-01-01T08:58:25.292Z,75.93
2023-01-01T09:03:50.795Z,72.95
2023-01-01T09:09:14.817Z,74.25
2023-01-01T09:14:38.584Z,73.72
2023-01-01T09:20:03.794Z,73.28
2023-01-01T09:25:27.793Z,65.55
2023-01-01T09:30:51.599Z,68.97
2023-01-01T09:36:28.887Z,64.75
2023-01-01T09:42:06.119Z,60.45
2023-01-01T09:47:34.842Z,56.75
2023-01-01T09:53:05.020Z,53.92
2023-01-01T09:58:31.537Z,56.58
2023-01-01T10:04:03.181Z,56.78
2023-01-01T10:15:03.176Z,57.55
2023-01-01T10:20:31.734Z,60.28
2023-01-01T10:25:59.400Z,62.95
2023-01-01T10:31:30.419Z,54.85
2023-01-01T10:36:56.118Z,52.53
2023-01-01T10:42:21.340Z,61.47
2023-01-01T10:48:10.228Z,45.03
2023-01-01T10:53:37.942Z,42.25
2023-01-01T10:59:03.343Z,45.08
2023-01-01T11:04:27.198Z,46.80
2023-01-01T11:10:02.529Z,44.88
2023-01-01T11:15:38.205Z,42.33
2023-01-01T11:21:02.329Z,39.47
2023-01-01T11:26:27.010Z,35.22
2023-01-01T11:31:53.632Z,32.08
2023-01-01T11:37:24.619Z,29.67
2023-01-01T11:42:58.092Z,30.77
2023-01-01T11:48:29.068Z,35.00
2023-01-01T11:53:52.946Z,31.23
2023-01-01T11:59:19.378Z,32.00
2023-01-01T12:04:50.441Z,31.30
2023-01-01T12:10:20.608Z,29.42
2023-01-01T12:15:51.400Z,36.47
2023-01-01T12:21:25.440Z,31.92
2023-01-01T12:27:10.819Z,33.78
2023-01-01T12:32:51.723Z,33.47
2023-01-01T12:38:34.773Z,34.73
2023-01-01T12:44:06.061Z,36.45
2023-01-01T12:49:42.890Z,31.20
2023-01-01T12:55:40.958Z,32.22
2023-01-01T13:01:10.090Z,32.70
2023-01-01T13:06:40.911Z,35.88
2023-01-01T13:12:09.320Z,25.85
2023-01-01T13:17:33.355Z,30.63
2023-01-01T13:22:57.233Z,27.90
2023-01-01T13:28:22.436Z,33.13
2023-01-01T13:33:46.360Z,26.42
2023-01-01T13:39:10.141Z,23.55
2023-01-01T13:44:35.267Z,27.90
2023-01-01T13:50:19.335Z,23.80
2023-01-01T13:56:13.856Z,26.08
2023-01-01T14:01:53.173Z,28.10
2023-01-01T14:13:17.891Z,29.02
2023-01-01T14:18:46.380Z,28.25
2023-01-01T14:24:13.456Z,28.55
2023-01-01T14:29:37.590Z,29.17
2023-01-01T14:35:03.512Z,29.02
2023-01-01T14:40:29.249Z,36.03
2023-01-01T14:45:53.491Z,30.77
2023-01-01T14:51:22.204Z,35.13
2023-01-01T14:56:48.521Z,35.13
2023-01-01T15:02:16.514Z,28.98
2023-01-01T15:07:42.334Z,32.13
2023-01-01T15:13:07.713Z,33.67
2023-01-01T15:18:42.442Z,46.40
2023-01-01T15:24:14.822Z,56.20
2023-01-01T15:29:40.475Z,91.30
2023-01-01T15:35:06.588Z,34.47
2023-01-01T15:40:37.009Z,32.38
2023-01-01T15:46:12.945Z,32.35
2023-01-01T15:51:37.245Z,35.53
2023-01-01T15:57:02.550Z,162.05
2023-01-01T16:02:30.543Z,37.08
2023-01-01T16:08:02.033Z,57.58
2023-01-01T16:13:27.317Z,80.55
2023-01-01T16:18:51.443Z,40.65
2023-01-01T16:24:16.204Z,123.18
2023-01-01T16:29:43.613Z,81.85
2023-01-01T16:35:13.092Z,35.47
2023-01-01T16:40:38.239Z,36.95
2023-01-01T16:46:07.098Z,69.75
2023-01-01T16:51:34.705Z,33.55
2023-01-01T16:56:58.656Z,31.60
2023-01-01T17:02:23.963Z,31.25
2023-01-01T17:07:47.995Z,41.38
2023-01-01T17:13:11.935Z,28.90
2023-01-01T17:19:13.469Z,37.45
2023-01-01T17:24:21.929Z,30.90
2023-01-01T17:29:45.797Z,35.80
2023-01-01T17:35:11.555Z,29.38
2023-01-01T17:40:37.172Z,31.60
2023-01-01T17:46:04.640Z,29.80
2023-01-01T17:51:30.663Z,36.10
2023-01-01T17:56:54.637Z,35.03
2023-01-01T18:02:18.705Z,33.60
2023-01-01T18:07:45.785Z,33.70
2023-01-01T18:13:09.616Z,33.47
2023-01-01T18:18:36.637Z,36.10
2023-01-01T18:24:02.215Z,35.17
2023-01-01T18:29:26.170Z,47.88
2023-01-01T18:34:51.387Z,41.45
2023-01-01T18:40:18.517Z,38.72
2023-01-01T18:45:42.498Z,40.42
2023-01-01T18:51:15.804Z,41.35
2023-01-01T18:56:41.157Z,41.28
2023-01-01T19:02:15.993Z,41.95
2023-01-01T19:07:39.904Z,38.38
2023-01-01T19:13:15.575Z,45.60
2023-01-01T19:18:40.867Z,40.97
2023-01-01T19:24:15.625Z,43.80
2023-01-01T19:29:44.796Z,38.53
2023-01-01T19:35:14.738Z,44.47
2023-01-01T19:40:40.267Z,42.97
2023-01-01T19:46:06.006Z,42.20
2023-01-01T19:51:29.867Z,39.58
2023-01-01T19:56:53.696Z,38.22
2023-01-01T20:02:44.669Z,31.73
2023-01-01T20:08:03.175Z,34.75
2023-01-01T20:13:27.272Z,38.72
2023-01-01T20:18:52.518Z,44.63
2023-01-01T20:24:17.606Z,43.83
2023-01-01T20:29:41.829Z,40.88
2023-01-01T20:35:07.597Z,42.65
2023-01-01T20:40:31.442Z,44.90
2023-01-01T20:45:55.310Z,36.90
2023-01-01T20:51:20.709Z,39.85
2023-01-01T20:56:44.886Z,40.92
2023-01-01T21:02:11.128Z,39.40
2023-01-01T21:07:36.743Z,36.15
2023-01-01T21:13:00.559Z,37.20
2023-01-01T21:18:24.611Z,44.30
2023-01-01T21:23:53.618Z,41.13
2023-01-01T21:29:20.540Z,40.08
2023-01-01T21:34:45.433Z,40.33
2023-01-01T21:40:35.731Z,36.42
2023-01-01T21:46:13.405Z,36.80
2023-01-01T21:51:42.396Z,41.10
2023-01-01T21:57:16.053Z,38.80
2023-01-01T22:02:40.206Z,42.70
2023-01-01T22:08:23.480Z,43.42
2023-01-01T22:13:48.767Z,41.15
2023-01-01T22:19:16.038Z,40.55
2023-01-01T22:24:39.891Z,46.25
2023-01-01T22:30:38.684Z,44.72
2023-01-01T22:36:02.647Z,46.97
2023-01-01T22:41:26.580Z,42.08
2023-01-01T22:46:51.983Z,57.97
2023-01-01T22:52:15.841Z,44.72
2023-01-01T22:57:39.671Z,47.42
2023-01-01T23:03:05.217Z,45.85
2023-01-01T23:08:30.033Z,48.22
2023-01-01T23:14:11.348Z,54.42
2023-01-01T23:19:36.526Z,58.17
2023-01-01T23:25:00.348Z,47.15
2023-01-01T23:30:24.180Z,43.22
2023-01-01T23:35:50.009Z,43.97
2023-01-01T23:41:13.777Z,50.03
2023-01-01T23:46:38.960Z,49.00
2023-01-01T23:52:05.447Z,50.72
2023-01-01T23:57:29.250Z,49.38
